createdAt,value
2019-02-15T00:00:44.181Z,98.58
2019-02-15T00:01:44.124Z,98.86
2019-02-15T00:02:44.066Z,98.11
2019-02-15T00:03:44.036Z,98.77
2019-02-15T00:04:43.951Z,99.33
2019-02-15T00:05:43.912Z,98.49
2019-02-15T00:06:43.839Z,98.58
2019-02-15T00:07:43.781Z,98.77
2019-02-15T00:08:43.754Z,98.68
2019-02-15T00:09:43.679Z,99.19
2019-02-15T00:10:43.613Z,99.33
2019-02-15T00:11:43.562Z,99.33
2019-02-15T00:12:43.501Z,99.10
2019-02-15T00:13:43.464Z,99.57
2019-02-15T00:14:43.511Z,99.29
2019-02-15T00:15:43.335Z,99.48
2019-02-15T00:16:43.355Z,99.38
2019-02-15T00:17:43.224Z,98.82
2019-02-15T00:18:43.181Z,99.76
2019-02-15T00:19:43.110Z,99.66
2019-02-15T00:20:43.091Z,99.19
2019-02-15T00:21:42.984Z,99.57
2019-02-15T00:22:42.947Z,99.57
2019-02-15T00:23:42.950Z,99.38
2019-02-15T00:24:42.819Z,99.85
2019-02-15T00:25:42.760Z,99.29
2019-02-15T00:26:42.726Z,99.38
2019-02-15T00:27:42.655Z,99.57
2019-02-15T00:28:42.602Z,99.10
2019-02-15T00:29:42.571Z,99.48
2019-02-15T00:30:42.466Z,99.48
2019-02-15T00:31:42.439Z,99.29
2019-02-15T00:32:42.383Z,98.53
2019-02-15T00:33:42.318Z,98.91
2019-02-15T00:34:42.296Z,98.63
2019-02-15T00:35:42.215Z,98.53
2019-02-15T00:36:42.135Z,98.82
2019-02-15T00:37:42.086Z,98.91
2019-02-15T00:38:42.011Z,98.53
2019-02-15T00:39:41.980Z,98.91
2019-02-15T00:40:41.928Z,98.72
2019-02-15T00:41:41.857Z,98.63
2019-02-15T00:42:41.795Z,99.29
2019-02-15T00:43:41.732Z,99.19
2019-02-15T00:44:41.717Z,99.10
2019-02-15T00:45:41.615Z,99.29
2019-02-15T00:46:41.556Z,99.29
2019-02-15T00:47:41.497Z,99.29
2019-02-15T00:48:41.447Z,99.38
2019-02-15T00:49:41.419Z,99.10
2019-02-15T00:50:41.360Z,99.19
2019-02-15T00:51:41.267Z,99.29
2019-02-15T00:52:41.217Z,99.10
2019-02-15T00:53:41.229Z,99.29
2019-02-15T00:54:41.122Z,99.38
2019-02-15T00:55:41.052Z,99.48
2019-02-15T00:56:40.992Z,99.10
2019-02-15T00:57:40.928Z,99.29
2019-02-15T00:58:40.877Z,99.19
2019-02-15T00:59:40.852Z,99.57
2019-02-15T01:00:40.756Z,99.76
2019-02-15T01:01:40.713Z,99.48
2019-02-15T01:02:40.641Z,99.29
2019-02-15T01:03:40.585Z,99.76
2019-02-15T01:04:40.565Z,99.76
2019-02-15T01:05:40.474Z,99.85
2019-02-15T01:06:40.423Z,99.66
2019-02-15T01:07:40.376Z,99.99
2019-02-15T01:08:40.322Z,99.85
2019-02-15T01:09:40.297Z,99.99
2019-02-15T01:10:40.197Z,99.99
2019-02-15T01:11:40.127Z,99.99
2019-02-15T01:12:40.080Z,99.85
2019-02-15T01:13:40.036Z,99.99
2019-02-15T01:14:40.003Z,99.85
2019-02-15T01:15:39.922Z,99.85
2019-02-15T01:16:39.852Z,99.85
2019-02-15T01:17:39.819Z,99.99
2019-02-15T01:18:39.738Z,99.99
2019-02-15T01:19:39.706Z,99.85
2019-02-15T01:20:39.611Z,99.76
2019-02-15T01:21:39.555Z,99.85
2019-02-15T01:22:39.516Z,99.99
2019-02-15T01:23:39.468Z,99.99
2019-02-15T01:24:39.430Z,99.66
2019-02-15T01:25:39.323Z,99.66
2019-02-15T01:26:39.296Z,99.76
2019-02-15T01:27:39.218Z,99.99
2019-02-15T01:28:39.148Z,99.85
2019-02-15T01:29:39.095Z,99.99
2019-02-15T01:30:39.070Z,99.76
2019-02-15T01:31:38.979Z,99.76
2019-02-15T01:32:38.936Z,99.19
2019-02-15T01:33:38.880Z,99.66
2019-02-15T01:34:38.820Z,99.76
2019-02-15T01:35:38.773Z,99.85
2019-02-15T01:36:38.689Z,99.85
2019-02-15T01:37:38.650Z,99.38
2019-02-15T01:38:38.610Z,99.38
2019-02-15T01:39:38.526Z,99.29
2019-02-15T01:40:38.530Z,99.29
2019-02-15T01:41:38.404Z,99.66
2019-02-15T01:42:38.349Z,99.29
2019-02-15T01:43:39.985Z,99.29
2019-02-15T01:44:38.254Z,99.29
2019-02-15T01:45:38.203Z,99.48
2019-02-15T01:46:38.144Z,98.72
2019-02-15T01:47:40.003Z,98.72
2019-02-15T01:48:38.020Z,99.29
2019-02-15T01:49:37.946Z,99.29
2019-02-15T01:50:37.910Z,99.66
2019-02-15T01:51:37.841Z,98.63
2019-02-15T01:52:37.779Z,98.72
2019-02-15T01:53:37.720Z,99.48
2019-02-15T01:54:37.694Z,99.48
2019-02-15T01:55:37.664Z,99.57
2019-02-15T01:56:37.548Z,99.48
2019-02-15T01:57:37.489Z,99.29
2019-02-15T01:58:37.460Z,99.48
2019-02-15T01:59:37.371Z,99.29
2019-02-15T02:00:37.359Z,99.48
2019-02-15T02:01:37.284Z,99.38
2019-02-15T02:02:37.207Z,99.48
2019-02-15T02:03:37.149Z,98.63
2019-02-15T02:04:37.083Z,98.91
2019-02-15T02:05:37.077Z,98.34
2019-02-15T02:06:36.975Z,98.63
2019-02-15T02:07:36.914Z,98.82
2019-02-15T02:08:36.873Z,98.82
2019-02-15T02:09:36.806Z,98.82
2019-02-15T02:10:36.782Z,98.91
2019-02-15T02:11:36.692Z,98.53
2019-02-15T02:12:36.626Z,99.29
2019-02-15T02:13:36.622Z,99.29
2019-02-15T02:14:36.513Z,99.29
2019-02-15T02:15:36.458Z,99.43
2019-02-15T02:16:36.422Z,99.10
2019-02-15T02:17:36.355Z,99.38
2019-02-15T02:18:36.290Z,99.24
2019-02-15T02:19:36.220Z,99.43
2019-02-15T02:20:36.171Z,99.99
2019-02-15T02:21:36.162Z,99.99
2019-02-15T02:22:36.066Z,99.99
2019-02-15T02:23:36.015Z,99.99
2019-02-15T02:24:35.963Z,99.62
2019-02-15T02:25:35.891Z,99.90
2019-02-15T02:26:35.847Z,99.52
2019-02-15T02:27:35.771Z,99.71
2019-02-15T02:28:35.733Z,99.80
2019-02-15T02:29:35.667Z,99.71
2019-02-15T02:30:35.591Z,99.80
2019-02-15T02:31:35.554Z,99.99
2019-02-15T02:32:35.476Z,99.90
2019-02-15T02:33:35.428Z,99.99
2019-02-15T02:34:35.412Z,99.99
2019-02-15T02:35:35.305Z,99.99
2019-02-15T02:36:35.271Z,99.99
2019-02-15T02:37:35.190Z,99.99
2019-02-15T02:38:35.131Z,99.99
2019-02-15T02:39:35.071Z,99.99
2019-02-15T02:40:35.014Z,99.99
2019-02-15T02:41:35.009Z,99.99
2019-02-15T02:42:34.929Z,99.99
2019-02-15T02:43:34.846Z,99.99
2019-02-15T02:44:34.791Z,99.99
2019-02-15T02:45:34.736Z,99.99
2019-02-15T02:46:34.713Z,99.99
2019-02-15T02:47:34.613Z,99.99
2019-02-15T02:48:34.586Z,99.99
2019-02-15T02:49:34.501Z,99.99
2019-02-15T02:50:34.447Z,99.99
2019-02-15T02:51:34.418Z,99.99
2019-02-15T02:52:34.345Z,99.99
2019-02-15T02:53:34.285Z,99.99
2019-02-15T02:54:34.210Z,99.99
2019-02-15T02:55:34.149Z,99.99
2019-02-15T02:56:34.132Z,99.99
2019-02-15T02:57:34.039Z,99.99
2019-02-15T02:58:33.989Z,99.99
2019-02-15T02:59:33.931Z,99.99
2019-02-15T03:00:34.026Z,99.99
2019-02-15T03:01:33.835Z,99.99
2019-02-15T03:02:33.757Z,99.99
2019-02-15T03:03:33.697Z,99.99
2019-02-15T03:04:33.646Z,99.80
2019-02-15T03:05:33.579Z,99.99
2019-02-15T03:06:33.557Z,99.99
2019-02-15T03:07:33.475Z,99.99
2019-02-15T03:08:33.410Z,99.99
2019-02-15T03:09:33.348Z,99.99
2019-02-15T03:10:33.299Z,99.99
2019-02-15T03:11:33.251Z,99.99
2019-02-15T03:12:33.179Z,99.99
2019-02-15T03:13:33.119Z,99.99
2019-02-15T03:14:33.059Z,99.99
2019-02-15T03:15:33.003Z,99.99
2019-02-15T03:16:32.970Z,99.99
2019-02-15T03:17:32.898Z,99.99
2019-02-15T03:18:32.829Z,99.99
2019-02-15T03:19:32.780Z,99.90
2019-02-15T03:20:32.709Z,99.99
2019-02-15T03:21:32.682Z,99.99
2019-02-15T03:22:32.604Z,99.99
2019-02-15T03:23:32.538Z,99.99
2019-02-15T03:24:32.486Z,99.99
2019-02-15T03:25:32.438Z,99.99
2019-02-15T03:26:32.408Z,99.99
2019-02-15T03:27:32.317Z,99.99
2019-02-15T03:28:32.272Z,99.99
2019-02-15T03:29:32.195Z,99.99
2019-02-15T03:30:32.134Z,99.99
2019-02-15T03:31:32.090Z,99.99
2019-02-15T03:32:32.045Z,99.99
2019-02-15T03:33:31.972Z,99.99
2019-02-15T03:34:31.913Z,99.99
2019-02-15T03:35:31.847Z,99.99
2019-02-15T03:36:31.800Z,99.99
2019-02-15T03:37:31.796Z,99.99
2019-02-15T03:38:31.676Z,99.99
2019-02-15T03:39:31.632Z,99.99
2019-02-15T03:40:31.560Z,99.99
2019-02-15T03:41:31.515Z,99.99
2019-02-15T03:42:31.491Z,99.99
2019-02-15T03:43:31.385Z,99.99
2019-02-15T03:44:31.344Z,99.99
2019-02-15T03:45:31.275Z,99.99
2019-02-15T03:46:31.219Z,99.99
2019-02-15T03:47:31.188Z,99.99
2019-02-15T03:48:31.098Z,99.99
2019-02-15T03:49:31.038Z,99.71
2019-02-15T03:50:31.003Z,99.99
2019-02-15T03:51:30.940Z,99.99
2019-02-15T03:52:30.903Z,99.99
2019-02-15T03:53:30.819Z,99.80
2019-02-15T03:54:30.749Z,99.90
2019-02-15T03:55:30.695Z,99.90
2019-02-15T03:56:30.683Z,99.90
2019-02-15T03:57:30.607Z,99.99
2019-02-15T03:58:30.527Z,99.80
2019-02-15T03:59:30.555Z,99.99
2019-02-15T04:00:30.404Z,99.99
2019-02-15T04:01:30.345Z,99.99
2019-02-15T04:02:30.337Z,99.71
2019-02-15T04:03:30.241Z,99.71
2019-02-15T04:04:30.183Z,99.71
2019-02-15T04:05:30.119Z,99.90
2019-02-15T04:06:30.060Z,99.80
2019-02-15T04:07:30.023Z,99.62
2019-02-15T04:08:29.958Z,99.71
2019-02-15T04:09:29.901Z,99.99
2019-02-15T04:10:29.833Z,99.80
2019-02-15T04:11:29.771Z,99.43
2019-02-15T04:12:31.966Z,99.62
2019-02-15T04:13:29.655Z,99.90
2019-02-15T04:14:32.788Z,99.99
2019-02-15T04:15:29.541Z,99.99
2019-02-15T04:16:29.520Z,99.99
2019-02-15T04:17:29.461Z,99.99
2019-02-15T04:18:29.369Z,99.80
2019-02-15T04:19:29.316Z,99.99
2019-02-15T04:20:29.262Z,99.62
2019-02-15T04:21:29.213Z,99.71
2019-02-15T04:22:29.173Z,99.43
2019-02-15T04:23:29.076Z,99.05
2019-02-15T04:24:29.017Z,99.62
2019-02-15T04:25:28.966Z,99.52
2019-02-15T04:26:28.912Z,99.24
2019-02-15T04:27:28.880Z,99.52
2019-02-15T04:28:28.798Z,99.24
2019-02-15T04:29:28.738Z,98.86
2019-02-15T04:30:28.678Z,99.52
2019-02-15T04:31:28.618Z,99.71
2019-02-15T04:32:28.605Z,99.71
2019-02-15T04:33:28.511Z,99.52
2019-02-15T04:34:28.450Z,99.43
2019-02-15T04:35:28.388Z,99.99
2019-02-15T04:36:28.338Z,99.99
2019-02-15T04:37:28.275Z,99.99
2019-02-15T04:38:28.273Z,99.99
2019-02-15T04:39:28.178Z,99.99
2019-02-15T04:40:28.102Z,99.99
2019-02-15T04:41:28.064Z,99.99
2019-02-15T04:42:27.989Z,99.52
2019-02-15T04:43:27.969Z,99.99
2019-02-15T04:44:27.869Z,99.99
2019-02-15T04:45:27.820Z,99.99
2019-02-15T04:46:27.755Z,99.99
2019-02-15T04:47:27.713Z,99.99
2019-02-15T04:48:27.673Z,99.99
2019-02-15T04:49:27.580Z,99.99
2019-02-15T04:50:27.527Z,99.71
2019-02-15T04:51:27.462Z,99.99
2019-02-15T04:52:27.408Z,99.99
2019-02-15T04:53:27.382Z,99.99
2019-02-15T04:54:27.297Z,99.99
2019-02-15T04:55:27.241Z,99.99
2019-02-15T04:56:27.176Z,99.99
2019-02-15T04:57:27.126Z,99.99
2019-02-15T04:58:27.097Z,99.99
2019-02-15T04:59:27.006Z,99.99
2019-02-15T05:00:26.948Z,99.99
2019-02-15T05:01:26.900Z,99.99
2019-02-15T05:02:26.837Z,99.99
2019-02-15T05:03:26.793Z,99.99
2019-02-15T05:04:26.724Z,99.99
2019-02-15T05:05:26.658Z,99.99
2019-02-15T05:06:26.602Z,99.99
2019-02-15T05:07:26.544Z,99.99
2019-02-15T05:08:26.507Z,99.80
2019-02-15T05:09:26.447Z,99.80
2019-02-15T05:10:26.369Z,99.52
2019-02-15T05:11:26.309Z,99.62
2019-02-15T05:12:26.269Z,99.90
2019-02-15T05:13:26.219Z,99.99
2019-02-15T05:14:26.153Z,99.99
2019-02-15T05:15:26.097Z,99.99
2019-02-15T05:16:26.031Z,99.99
2019-02-15T05:17:25.966Z,99.99
2019-02-15T05:18:25.940Z,99.99
2019-02-15T05:19:25.868Z,99.99
2019-02-15T05:20:25.786Z,99.71
2019-02-15T05:21:25.736Z,99.99
2019-02-15T05:22:25.680Z,99.90
2019-02-15T05:23:25.763Z,99.71
2019-02-15T05:24:25.588Z,99.99
2019-02-15T05:25:25.503Z,99.52
2019-02-15T05:26:25.443Z,99.99
2019-02-15T05:27:25.403Z,99.99
2019-02-15T05:28:25.356Z,99.99
2019-02-15T05:29:25.273Z,99.99
2019-02-15T05:30:25.224Z,99.99
2019-02-15T05:31:25.166Z,99.99
2019-02-15T05:32:25.103Z,99.99
2019-02-15T05:33:25.062Z,99.99
2019-02-15T05:34:24.984Z,99.99
2019-02-15T05:35:24.924Z,99.99
2019-02-15T05:36:24.884Z,99.80
2019-02-15T05:37:24.812Z,99.71
2019-02-15T05:38:24.790Z,99.71
2019-02-15T05:39:24.701Z,99.99
2019-02-15T05:40:24.642Z,99.71
2019-02-15T05:41:24.587Z,99.99
2019-02-15T05:42:24.528Z,99.99
2019-02-15T05:43:24.465Z,99.52
2019-02-15T05:44:24.434Z,99.71
2019-02-15T05:45:24.348Z,99.99
2019-02-15T05:46:24.295Z,99.99
2019-02-15T05:47:24.234Z,99.99
2019-02-15T05:48:24.176Z,99.99
2019-02-15T05:49:24.173Z,99.99
2019-02-15T05:50:24.062Z,99.99
2019-02-15T05:51:24.002Z,99.99
2019-02-15T05:52:23.946Z,99.99
2019-02-15T05:53:23.888Z,99.99
2019-02-15T05:54:23.864Z,99.99
2019-02-15T05:55:23.767Z,99.99
2019-02-15T05:56:23.708Z,99.99
2019-02-15T05:57:23.650Z,99.99
2019-02-15T05:58:23.601Z,99.71
2019-02-15T05:59:23.564Z,99.99
2019-02-15T06:00:23.478Z,99.71
2019-02-15T06:01:23.423Z,99.62
2019-02-15T06:02:23.363Z,99.24
2019-02-15T06:03:23.308Z,99.24
2019-02-15T06:04:23.331Z,99.80
2019-02-15T06:05:23.202Z,99.99
2019-02-15T06:06:23.134Z,99.99
2019-02-15T06:07:23.083Z,99.99
2019-02-15T06:08:23.038Z,99.99
2019-02-15T06:09:23.007Z,99.99
2019-02-15T06:10:22.920Z,99.99
2019-02-15T06:11:22.849Z,99.99
2019-02-15T06:12:22.791Z,99.99
2019-02-15T06:13:22.758Z,99.99
2019-02-15T06:14:22.695Z,99.99
2019-02-15T06:15:22.613Z,99.99
2019-02-15T06:16:22.559Z,99.99
2019-02-15T06:17:22.497Z,99.80
2019-02-15T06:18:22.446Z,99.71
2019-02-15T06:19:22.413Z,99.62
2019-02-15T06:20:22.344Z,99.71
2019-02-15T06:21:22.272Z,99.52
2019-02-15T06:22:22.216Z,99.33
2019-02-15T06:23:22.161Z,99.71
2019-02-15T06:24:22.116Z,99.62
2019-02-15T06:25:22.042Z,99.99
2019-02-15T06:26:21.976Z,99.99
2019-02-15T06:27:21.931Z,99.71
2019-02-15T06:28:21.863Z,99.43
2019-02-15T06:29:21.832Z,99.33
2019-02-15T06:30:21.745Z,98.48
2019-02-15T06:31:21.685Z,98.96
2019-02-15T06:32:21.632Z,98.48
2019-02-15T06:33:21.579Z,98.77
2019-02-15T06:34:21.559Z,98.67
2019-02-15T06:35:21.467Z,98.77
2019-02-15T06:36:21.403Z,98.58
2019-02-15T06:37:21.349Z,98.86
2019-02-15T06:38:21.322Z,99.52
2019-02-15T06:39:21.234Z,99.33
2019-02-15T06:40:21.214Z,99.24
2019-02-15T06:41:21.119Z,99.43
2019-02-15T06:42:21.058Z,99.15
2019-02-15T06:43:21.016Z,99.43
2019-02-15T06:44:20.948Z,99.71
2019-02-15T06:45:24.606Z,99.43
2019-02-15T06:46:20.831Z,99.80
2019-02-15T06:47:20.786Z,99.99
2019-02-15T06:48:20.740Z,99.99
2019-02-15T06:49:20.657Z,99.71
2019-02-15T06:50:20.638Z,99.62
2019-02-15T06:51:20.549Z,99.33
2019-02-15T06:52:20.479Z,99.99
2019-02-15T06:53:20.431Z,99.71
2019-02-15T06:54:20.372Z,99.71
2019-02-15T06:55:20.363Z,99.71
2019-02-15T06:56:20.245Z,99.52
2019-02-15T06:57:20.193Z,99.71
2019-02-15T06:58:20.129Z,99.33
2019-02-15T06:59:20.070Z,99.71
2019-02-15T07:00:20.044Z,99.71
2019-02-15T07:01:19.966Z,99.62
2019-02-15T07:02:19.898Z,99.80
2019-02-15T07:03:19.849Z,99.71
2019-02-15T07:04:19.792Z,99.90
2019-02-15T07:05:19.777Z,99.80
2019-02-15T07:06:19.680Z,99.52
2019-02-15T07:07:19.611Z,99.43
2019-02-15T07:08:19.556Z,99.99
2019-02-15T07:09:19.501Z,99.62
2019-02-15T07:10:19.464Z,99.15
2019-02-15T07:11:19.389Z,99.52
2019-02-15T07:12:19.325Z,99.33
2019-02-15T07:13:19.269Z,99.33
2019-02-15T07:14:20.878Z,99.71
2019-02-15T07:15:19.181Z,99.99
2019-02-15T07:16:19.089Z,99.62
2019-02-15T07:17:19.049Z,99.24
2019-02-15T07:18:18.984Z,99.33
2019-02-15T07:19:18.927Z,99.62
2019-02-15T07:20:18.905Z,99.05
2019-02-15T07:21:18.817Z,99.33
2019-02-15T07:22:18.810Z,99.43
2019-02-15T07:23:18.694Z,99.52
2019-02-15T07:24:18.684Z,99.15
2019-02-15T07:25:18.627Z,98.67
2019-02-15T07:26:18.522Z,98.96
2019-02-15T07:27:18.468Z,99.33
2019-02-15T07:28:18.414Z,99.29
2019-02-15T07:29:18.417Z,99.99
2019-02-15T07:30:18.337Z,99.33
2019-02-15T07:31:18.345Z,99.19
2019-02-15T07:32:18.208Z,99.57
2019-02-15T07:33:18.142Z,99.29
2019-02-15T07:34:18.076Z,99.01
2019-02-15T07:35:18.101Z,99.29
2019-02-15T07:36:17.966Z,99.29
2019-02-15T07:37:17.910Z,99.66
2019-02-15T07:38:17.834Z,99.38
2019-02-15T07:39:17.776Z,99.57
2019-02-15T07:40:17.746Z,98.72
2019-02-15T07:41:17.655Z,98.63
2019-02-15T07:42:17.627Z,98.44
2019-02-15T07:43:17.552Z,98.25
2019-02-15T07:44:17.505Z,98.44
2019-02-15T07:45:17.983Z,97.87
2019-02-15T07:46:17.382Z,97.87
2019-02-15T07:47:17.353Z,97.87
2019-02-15T07:48:17.250Z,97.77
2019-02-15T07:49:26.416Z,98.01
2019-02-15T07:50:17.147Z,97.54
2019-02-15T07:51:17.142Z,98.49
2019-02-15T07:52:17.032Z,97.35
2019-02-15T07:53:16.996Z,97.25
2019-02-15T07:54:16.923Z,98.11
2019-02-15T07:55:16.865Z,97.25
2019-02-15T07:56:16.820Z,96.88
2019-02-15T07:57:16.760Z,97.16
2019-02-15T07:58:16.698Z,97.35
2019-02-15T07:59:16.648Z,96.97
2019-02-15T08:00:16.586Z,97.44
2019-02-15T08:01:16.543Z,96.40
2019-02-15T08:02:16.455Z,96.50
2019-02-15T08:03:16.408Z,95.98
2019-02-15T08:04:16.343Z,95.79
2019-02-15T08:05:16.317Z,95.88
2019-02-15T08:06:16.271Z,95.88
2019-02-15T08:07:16.193Z,95.88
2019-02-15T08:08:16.129Z,95.22
2019-02-15T08:09:16.219Z,95.69
2019-02-15T08:10:16.028Z,95.41
2019-02-15T08:11:15.980Z,94.93
2019-02-15T08:12:15.909Z,94.74
2019-02-15T08:13:15.834Z,94.27
2019-02-15T08:14:17.485Z,94.46
2019-02-15T08:15:15.774Z,94.51
2019-02-15T08:16:15.723Z,93.94
2019-02-15T08:17:15.607Z,94.04
2019-02-15T08:18:15.593Z,94.23
2019-02-15T08:19:15.500Z,94.13
2019-02-15T08:20:15.451Z,93.08
2019-02-15T08:21:15.474Z,93.18
2019-02-15T08:22:15.329Z,93.08
2019-02-15T08:23:15.297Z,92.76
2019-02-15T08:24:15.222Z,92.66
2019-02-15T08:25:15.183Z,92.94
2019-02-15T08:26:15.128Z,92.47
2019-02-15T08:27:15.052Z,91.42
2019-02-15T08:28:15.012Z,91.24
2019-02-15T08:29:14.947Z,90.76
2019-02-15T08:30:14.889Z,90.81
2019-02-15T08:31:14.860Z,90.43
2019-02-15T08:32:14.774Z,90.05
2019-02-15T08:33:14.739Z,89.76
2019-02-15T08:34:14.679Z,88.91
2019-02-15T08:35:14.618Z,88.81
2019-02-15T08:36:14.591Z,88.48
2019-02-15T08:37:14.516Z,88.10
2019-02-15T08:38:14.489Z,88.01
2019-02-15T08:39:14.392Z,87.72
2019-02-15T08:40:14.362Z,87.72
2019-02-15T08:41:14.321Z,88.01
2019-02-15T08:42:14.227Z,86.58
2019-02-15T08:43:14.184Z,86.34
2019-02-15T08:44:14.118Z,86.43
2019-02-15T08:45:14.086Z,85.86
2019-02-15T08:46:14.044Z,85.01
2019-02-15T08:47:13.958Z,85.39
2019-02-15T08:48:13.902Z,84.44
2019-02-15T08:49:13.846Z,83.78
2019-02-15T08:50:13.822Z,83.25
2019-02-15T08:51:13.770Z,82.96
2019-02-15T08:52:13.677Z,82.68
2019-02-15T08:53:13.622Z,82.01
2019-02-15T08:54:13.571Z,82.49
2019-02-15T08:55:13.509Z,82.10
2019-02-15T08:56:13.520Z,82.10
2019-02-15T08:57:13.434Z,82.20
2019-02-15T08:58:13.372Z,82.29
2019-02-15T08:59:13.357Z,82.29
2019-02-15T09:00:13.272Z,81.29
2019-02-15T09:01:13.212Z,80.72
2019-02-15T09:02:13.171Z,80.82
2019-02-15T09:03:13.187Z,80.72
2019-02-15T09:04:13.029Z,81.10
2019-02-15T09:05:12.979Z,80.15
2019-02-15T09:06:12.932Z,79.96
2019-02-15T09:07:12.910Z,79.77
2019-02-15T09:08:12.841Z,80.19
2019-02-15T09:09:12.827Z,79.33
2019-02-15T09:10:12.716Z,79.72
2019-02-15T09:11:12.653Z,79.91
2019-02-15T09:12:12.635Z,79.81
2019-02-15T09:13:12.547Z,80.19
2019-02-15T09:14:12.509Z,79.43
2019-02-15T09:15:12.452Z,79.43
2019-02-15T09:16:12.407Z,78.86
2019-02-15T09:17:12.379Z,79.05
2019-02-15T09:18:12.284Z,78.67
2019-02-15T09:19:12.305Z,78.57
2019-02-15T09:20:12.181Z,78.48
2019-02-15T09:21:12.129Z,77.91
2019-02-15T09:22:12.094Z,77.72
2019-02-15T09:23:12.327Z,77.85
2019-02-15T09:24:11.964Z,77.47
2019-02-15T09:25:11.917Z,77.09
2019-02-15T09:26:17.975Z,76.81
2019-02-15T09:27:11.838Z,76.90
2019-02-15T09:28:11.783Z,77.37
2019-02-15T09:29:11.724Z,77.85
2019-02-15T09:30:11.652Z,77.66
2019-02-15T09:31:11.601Z,77.66
2019-02-15T09:32:11.617Z,77.19
2019-02-15T09:33:11.490Z,77.19
2019-02-15T09:34:11.455Z,76.90
2019-02-15T09:35:11.390Z,77.09
2019-02-15T09:36:11.336Z,76.71
2019-02-15T09:37:11.405Z,77.09
2019-02-15T09:38:11.245Z,76.37
2019-02-15T09:39:11.175Z,75.79
2019-02-15T09:40:11.151Z,75.60
2019-02-15T09:41:11.077Z,75.32
2019-02-15T09:42:11.054Z,75.42
2019-02-15T09:43:10.979Z,75.99
2019-02-15T09:44:10.990Z,75.51
2019-02-15T09:45:10.883Z,76.37
2019-02-15T09:46:19.304Z,75.42
2019-02-15T09:47:10.808Z,76.27
2019-02-15T09:48:10.748Z,75.89
2019-02-15T09:49:10.652Z,75.89
2019-02-15T09:50:12.301Z,76.37
2019-02-15T09:51:10.580Z,75.79
2019-02-15T09:52:10.519Z,75.99
2019-02-15T09:53:10.486Z,76.27
2019-02-15T09:54:10.423Z,75.55
2019-02-15T09:55:10.342Z,74.88
2019-02-15T09:56:10.305Z,75.26
2019-02-15T09:57:10.243Z,74.88
2019-02-15T09:58:10.228Z,74.98
2019-02-15T09:59:10.140Z,74.40
2019-02-15T10:00:10.087Z,74.69
2019-02-15T10:01:10.034Z,74.88
2019-02-15T10:02:10.299Z,74.40
2019-02-15T10:03:09.963Z,74.88
2019-02-15T10:04:09.881Z,74.21
2019-02-15T10:05:09.857Z,73.83
2019-02-15T10:06:09.802Z,73.83
2019-02-15T10:07:09.741Z,73.58
2019-02-15T10:08:09.692Z,73.30
2019-02-15T10:09:09.624Z,73.49
2019-02-15T10:10:09.567Z,72.63
2019-02-15T10:11:09.532Z,73.01
2019-02-15T10:12:09.468Z,73.58
2019-02-15T10:13:09.438Z,73.96
2019-02-15T10:14:09.362Z,73.39
2019-02-15T10:15:09.323Z,73.11
2019-02-15T10:16:09.277Z,73.87
2019-02-15T10:17:09.233Z,73.11
2019-02-15T10:18:09.186Z,73.77
2019-02-15T10:19:09.117Z,73.11
2019-02-15T10:20:09.058Z,72.63
2019-02-15T10:21:09.012Z,72.72
2019-02-15T10:22:08.970Z,72.63
2019-02-15T10:23:08.952Z,72.34
2019-02-15T10:24:08.864Z,72.25
2019-02-15T10:25:08.803Z,72.16
2019-02-15T10:26:08.757Z,71.87
2019-02-15T10:27:08.697Z,72.16
2019-02-15T10:28:08.674Z,72.16
2019-02-15T10:29:08.600Z,72.44
2019-02-15T10:30:08.558Z,71.58
2019-02-15T10:31:08.520Z,71.91
2019-02-15T10:32:08.456Z,72.09
2019-02-15T10:33:08.418Z,71.33
2019-02-15T10:34:08.408Z,71.62
2019-02-15T10:35:08.285Z,70.95
2019-02-15T10:36:08.243Z,70.38
2019-02-15T10:37:08.197Z,70.76
2019-02-15T10:38:08.184Z,71.62
2019-02-15T10:39:08.095Z,71.33
2019-02-15T10:40:08.022Z,71.14
2019-02-15T10:41:07.978Z,70.86
2019-02-15T10:42:07.936Z,70.38
2019-02-15T10:43:07.933Z,70.76
2019-02-15T10:44:07.828Z,70.76
2019-02-15T10:45:07.788Z,69.52
2019-02-15T10:46:07.729Z,70.28
2019-02-15T10:47:13.926Z,70.28
2019-02-15T10:48:07.667Z,69.62
2019-02-15T10:49:07.602Z,69.71
2019-02-15T10:50:07.524Z,69.71
2019-02-15T10:51:07.471Z,68.85
2019-02-15T10:52:07.425Z,68.95
2019-02-15T10:53:07.369Z,69.04
2019-02-15T10:54:07.368Z,67.90
2019-02-15T10:55:07.282Z,67.93
2019-02-15T10:56:07.215Z,68.22
2019-02-15T10:57:07.176Z,68.41
2019-02-15T10:58:07.112Z,68.12
2019-02-15T10:59:07.093Z,68.98
2019-02-15T11:00:07.018Z,69.08
2019-02-15T11:01:06.975Z,69.56
2019-02-15T11:02:06.911Z,68.79
2019-02-15T11:03:06.874Z,68.85
2019-02-15T11:04:06.853Z,67.99
2019-02-15T11:05:06.782Z,68.22
2019-02-15T11:06:06.720Z,68.32
2019-02-15T11:07:06.656Z,68.32
2019-02-15T11:08:06.605Z,67.83
2019-02-15T11:09:06.599Z,67.46
2019-02-15T11:10:06.513Z,67.36
2019-02-15T11:11:06.464Z,66.69
2019-02-15T11:12:06.429Z,67.17
2019-02-15T11:13:06.370Z,67.27
2019-02-15T11:14:06.345Z,66.60
2019-02-15T11:15:06.257Z,66.50
2019-02-15T11:16:06.207Z,66.98
2019-02-15T11:17:06.145Z,66.69
2019-02-15T11:18:06.115Z,66.50
2019-02-15T11:19:06.094Z,66.35
2019-02-15T11:20:05.994Z,65.67
2019-02-15T11:21:05.978Z,65.87
2019-02-15T11:22:05.899Z,65.77
2019-02-15T11:23:05.845Z,66.35
2019-02-15T11:24:05.819Z,66.25
2019-02-15T11:25:05.741Z,66.35
2019-02-15T11:26:05.698Z,65.77
2019-02-15T11:27:05.643Z,65.67
2019-02-15T11:28:05.595Z,65.10
2019-02-15T11:29:05.570Z,65.10
2019-02-15T11:30:05.490Z,63.86
2019-02-15T11:31:05.448Z,64.91
2019-02-15T11:32:05.393Z,64.34
2019-02-15T11:33:05.340Z,63.86
2019-02-15T11:34:05.317Z,63.48
2019-02-15T11:35:05.235Z,63.60
2019-02-15T11:36:05.201Z,64.56
2019-02-15T11:37:05.139Z,64.85
2019-02-15T11:38:05.098Z,63.89
2019-02-15T11:39:06.073Z,63.51
2019-02-15T11:40:05.566Z,63.60
2019-02-15T11:41:10.983Z,63.32
2019-02-15T11:42:04.940Z,63.13
2019-02-15T11:43:04.840Z,62.46
2019-02-15T11:44:04.815Z,62.08
2019-02-15T11:45:04.739Z,61.60
2019-02-15T11:46:04.690Z,61.25
2019-02-15T11:47:04.648Z,61.06
2019-02-15T11:48:04.586Z,60.87
2019-02-15T11:49:04.559Z,60.87
2019-02-15T11:50:04.488Z,61.35
2019-02-15T11:51:04.434Z,61.25
2019-02-15T11:52:04.384Z,61.44
2019-02-15T11:53:04.333Z,62.21
2019-02-15T11:54:04.312Z,62.40
2019-02-15T11:55:04.231Z,62.40
2019-02-15T11:56:04.190Z,62.11
2019-02-15T11:57:04.137Z,61.25
2019-02-15T11:58:04.086Z,61.54
2019-02-15T11:59:04.061Z,61.44
2019-02-15T12:00:13.635Z,61.63
2019-02-15T12:01:03.947Z,61.72
2019-02-15T12:02:06.252Z,61.72
2019-02-15T12:03:03.842Z,61.72
2019-02-15T12:04:03.807Z,61.82
2019-02-15T12:05:03.739Z,60.58
2019-02-15T12:06:03.910Z,61.44
2019-02-15T12:07:03.636Z,59.56
2019-02-15T12:08:03.587Z,58.98
2019-02-15T12:09:03.588Z,58.70
2019-02-15T12:10:03.487Z,59.08
2019-02-15T12:11:03.438Z,58.89
2019-02-15T12:12:10.390Z,59.47
2019-02-15T12:13:03.332Z,60.23
2019-02-15T12:14:03.314Z,59.47
2019-02-15T12:15:03.233Z,58.80
2019-02-15T12:16:03.187Z,58.89
2019-02-15T12:17:05.638Z,60.04
2019-02-15T12:18:03.085Z,59.84
2019-02-15T12:19:03.069Z,60.61
2019-02-15T12:20:03.000Z,61.09
2019-02-15T12:21:02.931Z,60.61
2019-02-15T12:22:02.876Z,61.28
2019-02-15T12:23:02.838Z,61.57
2019-02-15T12:24:02.798Z,61.66
2019-02-15T12:25:02.785Z,62.52
2019-02-15T12:26:02.689Z,61.38
2019-02-15T12:27:02.634Z,60.04
2019-02-15T12:28:02.592Z,60.04
2019-02-15T12:29:02.972Z,60.04
2019-02-15T12:30:02.511Z,60.52
2019-02-15T12:31:02.437Z,60.80
2019-02-15T12:32:02.407Z,61.66
2019-02-15T12:33:02.337Z,60.99
2019-02-15T12:34:02.294Z,59.84
2019-02-15T12:35:02.273Z,60.13
2019-02-15T12:36:02.193Z,59.84
2019-02-15T12:37:02.141Z,60.90
2019-02-15T12:38:02.086Z,61.12
2019-02-15T12:39:02.034Z,60.74
2019-02-15T12:40:02.047Z,60.64
2019-02-15T12:41:01.968Z,60.83
2019-02-15T12:42:01.913Z,59.78
2019-02-15T12:43:01.844Z,60.74
2019-02-15T12:44:01.799Z,60.06
2019-02-15T12:45:01.798Z,60.06
2019-02-15T12:46:01.690Z,60.83
2019-02-15T12:47:01.663Z,61.60
2019-02-15T12:48:01.618Z,61.31
2019-02-15T12:49:01.556Z,60.93
2019-02-15T12:50:01.526Z,61.41
2019-02-15T12:51:01.438Z,61.31
2019-02-15T12:52:01.403Z,60.64